Time;durP1;ratioP1;P1;durP2;ratioP2;P2;SDS_P1;SDS_P2;PMS_P1;PMS_P2;Temp;Humidity;BMP_temperature;BMP_pressure;BME280_temperature;BME280_humidity;BME280_pressure;Samples;Min_cycle;Max_cycle;Signal;HPM_P1;HPM_P2
2022/06/17 00:01:20;;;;;;;;;;;;;;;13.43;100.00;98252.82;1771016;80;20220;-81
2022/06/17 00:03:48;;;;;;;;;;;;;;;13.43;100.00;98257.45;1755077;80;20174;-81
2022/06/17 00:06:14;;;;;;;;;;;;;;;13.39;100.00;98255.05;1769856;80;20166;-81
2022/06/17 00:08:41;;;;;;;;;;;;;;;13.35;100.00;98264.36;1775101;80;20167;-86
2022/06/17 00:11:15;;;;;;;;;;;;;;;13.32;100.00;98268.19;1781549;80;21120;-87
2022/06/17 00:13:41;;;;;;;;;;;;;;;13.29;100.00;98273.67;1775444;79;20169;-86
2022/06/17 00:16:11;;;;;;;;;;;;;;;13.26;100.00;98272.91;1746934;80;20204;-85
2022/06/17 00:18:37;;;;;;;;;;;;;;;13.23;100.00;98275.64;1780933;80;20693;-81
2022/06/17 00:21:03;;;;;;;;;;;;;;;13.19;100.00;98279.22;1781716;80;20215;-87
2022/06/17 00:23:29;;;;;;;;;;;;;;;13.16;100.00;98270.25;1757661;80;21187;-81
2022/06/17 00:25:55;;;;;;;;;;;;;;;13.14;100.00;98274.63;1781945;80;20762;-86
2022/06/17 00:28:23;;;;;;;;;;;;;;;13.14;100.00;98278.71;1780536;80;20238;-87
2022/06/17 00:30:50;;;;;;;;;;;;;;;13.16;100.00;98268.38;1779864;80;20184;-81
2022/06/17 00:33:16;;;;;;;;;;;;;;;13.13;100.00;98276.28;1781771;79;20200;-81
2022/06/17 00:35:53;;;;;;;;;;;;;;;13.12;100.00;98276.03;1781885;80;21025;-81
2022/06/17 00:38:21;;;;;;;;;;;;;;;13.10;100.00;98276.33;1781773;79;20618;-86
2022/06/17 00:40:47;;;;;;;;;;;;;;;13.07;100.00;98271.44;1774979;80;20196;-87
2022/06/17 00:43:30;;;;;;;;;;;;;;;13.04;100.00;98264.42;1772741;80;20164;-87
2022/06/17 00:46:09;;;;;;;;;;;;;;;12.97;100.00;98267.48;1748517;80;20190;-81
2022/06/17 00:48:39;;;;;;;;;;;;;;;12.92;100.00;98262.92;1772392;80;21154;-81
2022/06/17 00:51:08;;;;;;;;;;;;;;;12.89;100.00;98260.77;1781350;80;20191;-86
2022/06/17 00:53:37;;;;;;;;;;;;;;;12.86;100.00;98264.63;1760920;79;20198;-87
2022/06/17 00:56:12;;;;;;;;;;;;;;;12.81;100.00;98272.82;1744356;80;20638;-81
2022/06/17 00:58:57;;;;;;;;;;;;;;;12.78;100.00;98271.50;1781912;79;20156;-86
2022/06/17 01:01:23;;;;;;;;;;;;;;;12.76;100.00;98283.22;1780653;80;21282;-81
2022/06/17 01:03:50;;;;;;;;;;;;;;;12.67;100.00;98283.03;1781806;79;20593;-86
2022/06/17 01:06:17;;;;;;;;;;;;;;;12.64;100.00;98281.42;1744269;80;20198;-86
2022/06/17 01:11:30;;;;;;;;;;;;;;;12.58;100.00;98288.02;1752085;79;20470;-81
2022/06/17 01:13:56;;;;;;;;;;;;;;;12.56;100.00;98289.67;1781860;80;21143;-81
2022/06/17 01:16:23;;;;;;;;;;;;;;;12.53;100.00;98294.84;1782036;80;20246;-86
2022/06/17 01:18:49;;;;;;;;;;;;;;;12.49;100.00;98285.66;1768040;79;20199;-81
2022/06/17 01:21:21;;;;;;;;;;;;;;;12.50;100.00;98287.27;1782135;80;20167;-87
2022/06/17 01:23:48;;;;;;;;;;;;;;;12.43;100.00;98288.95;1768062;79;20211;-86
2022/06/17 01:26:15;;;;;;;;;;;;;;;12.37;100.00;98290.09;1774606;80;21077;-87
2022/06/17 01:28:41;;;;;;;;;;;;;;;12.31;100.00;98289.34;1761489;80;20167;-81
2022/06/17 01:31:07;;;;;;;;;;;;;;;12.27;100.00;98299.69;1782100;80;20324;-87
2022/06/17 01:33:37;;;;;;;;;;;;;;;12.21;100.00;98304.89;1781919;79;20182;-87
2022/06/17 01:36:15;;;;;;;;;;;;;;;12.20;100.00;98299.19;1781843;80;20259;-80
2022/06/17 01:38:43;;;;;;;;;;;;;;;12.20;100.00;98303.27;1760831;80;21731;-82
2022/06/17 01:41:09;;;;;;;;;;;;;;;12.18;100.00;98302.75;1775668;80;20176;-88
2022/06/17 01:43:55;;;;;;;;;;;;;;;12.17;100.00;98304.66;1768120;79;20273;-87
2022/06/17 01:46:35;;;;;;;;;;;;;;;12.14;100.00;98308.75;1782072;80;20175;-81
2022/06/17 01:49:04;;;;;;;;;;;;;;;12.14;100.00;98312.83;1768237;80;20184;-87
2022/06/17 01:51:32;;;;;;;;;;;;;;;12.19;100.00;98311.97;1780335;79;21157;-87
2022/06/17 01:53:58;;;;;;;;;;;;;;;12.19;100.00;98316.59;1768311;80;20458;-87
2022/06/17 01:56:28;;;;;;;;;;;;;;;12.19;100.00;98320.66;1782030;80;20455;-88
2022/06/17 01:59:00;;;;;;;;;;;;;;;12.18;100.00;98325.28;1751570;80;20252;-86
2022/06/17 02:01:29;;;;;;;;;;;;;;;12.21;100.00;98325.27;1770904;80;20210;-82
2022/06/17 02:03:58;;;;;;;;;;;;;;;12.23;100.00;98325.81;1761374;80;21160;-87
2022/06/17 02:06:30;;;;;;;;;;;;;;;12.25;100.00;98325.78;1766857;80;20183;-86
2022/06/17 02:08:56;;;;;;;;;;;;;;;12.23;100.00;98308.16;1746220;80;20166;-86
2022/06/17 02:11:22;;;;;;;;;;;;;;;12.25;100.00;98318.99;1780199;80;20677;-81
2022/06/17 02:13:48;;;;;;;;;;;;;;;12.26;100.00;98322.52;1781805;79;20245;-81
2022/06/17 02:16:14;;;;;;;;;;;;;;;12.23;100.00;98325.27;1781739;80;21141;-87
2022/06/17 02:18:40;;;;;;;;;;;;;;;12.23;100.00;98327.98;1781759;79;20242;-81
2022/06/17 02:21:09;;;;;;;;;;;;;;;12.24;100.00;98334.22;1776173;80;20247;-83
2022/06/17 02:23:35;;;;;;;;;;;;;;;12.23;100.00;98334.77;1781841;79;20196;-86
2022/06/17 02:26:01;;;;;;;;;;;;;;;12.24;100.00;98336.39;1752185;80;20682;-82
2022/06/17 02:28:29;;;;;;;;;;;;;;;12.24;100.00;98342.38;1768001;79;21166;-85
2022/06/17 02:30:54;;;;;;;;;;;;;;;12.24;100.00;98332.86;1779693;80;20152;-80
2022/06/17 02:33:20;;;;;;;;;;;;;;;12.23;100.00;98336.68;1769312;80;20786;-84
2022/06/17 02:35:58;;;;;;;;;;;;;;;12.20;100.00;98332.59;1781650;80;20179;-85
2022/06/17 02:38:25;;;;;;;;;;;;;;;12.18;100.00;98332.08;1764978;80;20195;-80
2022/06/17 02:40:54;;;;;;;;;;;;;;;12.17;100.00;98335.89;1770389;80;21035;-79
2022/06/17 02:43:24;;;;;;;;;;;;;;;12.13;100.00;98334.30;1766062;80;20187;-85
2022/06/17 02:46:01;;;;;;;;;;;;;;;12.14;100.00;98337.83;1768871;80;20454;-85
2022/06/17 02:48:28;;;;;;;;;;;;;;;12.10;100.00;98336.20;1764276;80;20191;-80
2022/06/17 02:50:56;;;;;;;;;;;;;;;12.15;100.00;98329.94;1771227;80;20419;-85
2022/06/17 02:53:28;;;;;;;;;;;;;;;12.15;100.00;98338.09;1781725;79;21128;-86
2022/06/17 02:55:54;;;;;;;;;;;;;;;12.18;100.00;98338.06;1781805;80;20326;-80
2022/06/17 02:58:43;;;;;;;;;;;;;;;12.16;100.00;98344.33;1781812;79;20242;-85
2022/06/17 03:01:15;;;;;;;;;;;;;;;12.16;100.00;98346.50;1775624;80;20199;-80
2022/06/17 03:03:42;;;;;;;;;;;;;;;12.14;100.00;98346.78;1775268;80;20195;-85
2022/06/17 03:06:11;;;;;;;;;;;;;;;12.14;100.00;98352.77;1781675;80;21066;-80
2022/06/17 03:08:37;;;;;;;;;;;;;;;12.13;100.00;98351.12;1761481;80;20246;-84
2022/06/17 03:11:04;;;;;;;;;;;;;;;12.13;100.00;98355.19;1775299;80;20233;-80
2022/06/17 03:13:35;;;;;;;;;;;;;;;12.13;100.00;98356.55;1766905;80;20128;-85
2022/06/17 03:16:02;;;;;;;;;;;;;;;12.16;100.00;98364.70;1775908;80;20195;-80
2022/06/17 03:18:28;;;;;;;;;;;;;;;12.17;100.00;98363.06;1758040;80;21893;-80
2022/06/17 03:20:54;;;;;;;;;;;;;;;12.22;100.00;98360.32;1781557;80;20155;-85
2022/06/17 03:23:26;;;;;;;;;;;;;;;12.24;100.00;98367.64;1781160;80;20202;-85
2022/06/17 03:25:59;;;;;;;;;;;;;;;12.27;100.00;98368.97;1747951;80;20485;-80
2022/06/17 03:28:37;;;;;;;;;;;;;;;12.25;100.00;98363.02;1740202;80;20171;-85
2022/06/17 03:31:06;;;;;;;;;;;;;;;12.25;100.00;98367.09;1773422;80;21217;-80
2022/06/17 03:33:34;;;;;;;;;;;;;;;12.24;100.00;98364.92;1766871;79;20486;-81
2022/06/17 03:36:03;;;;;;;;;;;;;;;12.22;100.00;98375.27;1726322;80;20161;-79
2022/06/17 03:38:38;;;;;;;;;;;;;;;12.22;100.00;98363.55;1780961;80;20639;-85
2022/06/17 03:41:12;;;;;;;;;;;;;;;12.28;100.00;98366.52;1776310;80;20188;-85
2022/06/17 03:43:44;;;;;;;;;;;;;;;12.25;100.00;98369.80;1741727;80;21329;-85
2022/06/17 03:46:10;;;;;;;;;;;;;;;12.26;100.00;98368.70;1777128;80;20149;-81
2022/06/17 03:48:52;;;;;;;;;;;;;;;12.26;100.00;98372.78;1781955;79;20277;-81
2022/06/17 03:51:19;;;;;;;;;;;;;;;12.19;100.00;98382.59;1781890;80;20439;-82
2022/06/17 03:53:45;;;;;;;;;;;;;;;12.18;100.00;98376.91;1781752;79;20157;-87
2022/06/17 03:56:15;;;;;;;;;;;;;;;12.17;100.00;98376.64;1781875;80;22248;-87
2022/06/17 03:58:41;;;;;;;;;;;;;;;12.19;100.00;98388.03;1781600;79;20220;-82
2022/06/17 04:01:16;;;;;;;;;;;;;;;12.19;100.00;98391.30;1783317;80;20534;-82
2022/06/17 04:03:44;;;;;;;;;;;;;;;12.25;100.00;98388.83;1781574;80;20909;-81
2022/06/17 04:06:12;;;;;;;;;;;;;;;12.34;100.00;98398.00;1775888;80;20194;-88
2022/06/17 04:08:58;;;;;;;;;;;;;;;12.41;100.00;98401.22;1760998;80;21097;-87
2022/06/17 04:11:30;;;;;;;;;;;;;;;12.50;100.00;98406.31;1752188;80;20172;-87
2022/06/17 04:13:56;;;;;;;;;;;;;;;12.59;100.00;98411.97;1781277;80;20219;-87
2022/06/17 04:16:25;;;;;;;;;;;;;;;12.67;100.00;98416.25;1781817;80;20640;-81
2022/06/17 04:18:51;;;;;;;;;;;;;;;12.73;100.00;98412.11;1767418;80;20156;-87
2022/06/17 04:21:17;;;;;;;;;;;;;;;12.73;100.00;98421.63;1781237;80;21124;-87
2022/06/17 04:23:43;;;;;;;;;;;;;;;12.78;100.00;98414.81;1769750;79;20195;-87
2022/06/17 04:26:25;;;;;;;;;;;;;;;12.82;100.00;98413.97;1753260;80;20195;-87
2022/06/17 04:28:55;;;;;;;;;;;;;;;12.91;100.00;98426.41;1781118;80;20483;-86
2022/06/17 04:31:23;;;;;;;;;;;;;;;12.94;100.00;98424.47;1781715;80;20140;-81
2022/06/17 04:34:00;;;;;;;;;;;;;;;12.93;100.00;98420.12;1756447;80;21802;-86
2022/06/17 04:36:33;;;;;;;;;;;;;;;12.99;100.00;98423.88;1770095;80;20217;-81
2022/06/17 04:39:02;;;;;;;;;;;;;;;12.99;100.00;98431.23;1780946;80;20216;-81
2022/06/17 04:41:30;;;;;;;;;;;;;;;13.05;100.00;98425.18;1752096;80;20187;-87
2022/06/17 04:43:57;;;;;;;;;;;;;;;13.18;100.00;98429.42;1781592;80;20232;-87
2022/06/17 04:46:26;;;;;;;;;;;;;;;13.28;100.00;98431.26;1781551;80;21142;-86
2022/06/17 04:48:57;;;;;;;;;;;;;;;13.38;100.00;98435.23;1755990;80;20951;-81
2022/06/17 04:51:20;;;;;;;;;;;;;;;13.45;100.00;98437.08;1778797;80;20231;-80
2022/06/17 04:53:45;;;;;;;;;;;;;;;13.50;100.00;98436.20;1782609;80;20146;-86
2022/06/17 04:56:18;;;;;;;;;;;;;;;13.50;100.00;98437.55;1782427;79;20222;-81
2022/06/17 04:58:44;;;;;;;;;;;;;;;13.46;100.00;98440.61;1777322;79;21138;-80
2022/06/17 05:01:17;;;;;;;;;;;;;;;13.49;100.00;98443.55;1771319;80;20261;-87
2022/06/17 05:03:43;;;;;;;;;;;;;;;13.51;100.00;98446.02;1754494;80;20496;-87
2022/06/17 05:06:10;;;;;;;;;;;;;;;13.47;100.00;98447.67;1770126;80;20183;-87
2022/06/17 05:08:42;;;;;;;;;;;;;;;13.46;100.00;98448.22;1767839;80;21000;-87
2022/06/17 05:11:14;;;;;;;;;;;;;;;13.50;100.00;98447.08;1781021;79;21252;-81
2022/06/17 05:13:50;;;;;;;;;;;;;;;13.57;100.00;98438.58;1780125;80;20180;-81
2022/06/17 05:16:16;;;;;;;;;;;;;;;13.64;100.00;98445.31;1772748;80;20463;-86
2022/06/17 05:18:41;;;;;;;;;;;;;;;13.74;100.00;98439.74;1759524;80;20190;-81
2022/06/17 05:21:17;;;;;;;;;;;;;;;13.79;100.00;98429.35;1778068;80;20214;-80
2022/06/17 05:23:42;;;;;;;;;;;;;;;13.87;100.00;98434.16;1781503;80;21336;-87
2022/06/17 05:26:08;;;;;;;;;;;;;;;13.99;100.00;98436.45;1756065;80;20198;-87
2022/06/17 05:28:34;;;;;;;;;;;;;;;14.10;100.00;98437.42;1781675;80;20230;-81
2022/06/17 05:31:00;;;;;;;;;;;;;;;14.18;100.00;98446.02;1781542;80;20250;-81
2022/06/17 05:33:26;;;;;;;;;;;;;;;14.25;100.00;98453.29;1781721;79;20234;-87
2022/06/17 05:35:52;;;;;;;;;;;;;;;14.30;100.00;98457.33;1781953;80;21144;-81
2022/06/17 05:38:17;;;;;;;;;;;;;;;14.35;100.00;98462.69;1782403;79;20226;-87
2022/06/17 05:40:43;;;;;;;;;;;;;;;14.39;100.00;98456.92;1782280;80;20191;-81
2022/06/17 05:43:10;;;;;;;;;;;;;;;14.45;100.00;98459.04;1774303;80;20218;-87
2022/06/17 05:45:36;;;;;;;;;;;;;;;14.51;100.00;98461.41;1776603;80;20159;-81
2022/06/17 05:48:01;;;;;;;;;;;;;;;14.57;100.00;98468.97;1775646;80;21098;-87
2022/06/17 05:50:28;;;;;;;;;;;;;;;14.63;99.56;98474.63;1776067;80;20222;-80
2022/06/17 05:52:56;;;;;;;;;;;;;;;14.63;100.00;98468.61;1780818;79;20144;-81
2022/06/17 05:55:22;;;;;;;;;;;;;;;14.75;100.00;98474.16;1782071;79;20435;-87
2022/06/17 05:57:48;;;;;;;;;;;;;;;14.84;100.00;98482.74;1761646;80;20239;-81
2022/06/17 06:00:14;;;;;;;;;;;;;;;14.96;100.00;98482.31;1769898;79;21899;-81
2022/06/17 06:02:40;;;;;;;;;;;;;;;15.10;100.00;98488.61;1766442;80;20183;-81
2022/06/17 06:05:07;;;;;;;;;;;;;;;15.16;100.00;98492.89;1774894;80;20203;-87
2022/06/17 06:07:32;;;;;;;;;;;;;;;15.29;100.00;98489.12;1769589;80;20221;-80
2022/06/17 06:09:58;;;;;;;;;;;;;;;15.41;100.00;98499.04;1780069;80;20274;-87
2022/06/17 06:12:53;;;;;;;;;;;;;;;15.49;99.95;98498.35;1773572;80;21616;-88
2022/06/17 06:14:52;;;;;;;;;;;;;;;15.57;100.00;98499.59;1758916;80;20179;-86
2022/06/17 06:17:17;;;;;;;;;;;;;;;15.70;99.95;98500.18;1726108;82;20210;-81
2022/06/17 06:19:43;;;;;;;;;;;;;;;15.80;99.68;98503.53;1780234;80;20711;-87
2022/06/17 06:22:09;;;;;;;;;;;;;;;15.90;99.70;98503.92;1780985;80;20171;-81
2022/06/17 06:24:35;;;;;;;;;;;;;;;16.03;99.15;98508.56;1775497;80;21108;-87
2022/06/17 06:27:00;;;;;;;;;;;;;;;16.23;98.70;98506.53;1777428;79;20175;-81
2022/06/17 06:29:26;;;;;;;;;;;;;;;16.43;98.41;98505.31;1773468;80;20286;-81
2022/06/17 06:31:52;;;;;;;;;;;;;;;16.58;98.23;98504.44;1772510;79;20664;-87
2022/06/17 06:34:20;;;;;;;;;;;;;;;16.58;96.87;98505.80;1778829;80;20229;-81
2022/06/17 06:36:45;;;;;;;;;;;;;;;16.59;96.33;98511.52;1773732;80;20969;-87
2022/06/17 06:39:11;;;;;;;;;;;;;;;16.57;95.77;98510.19;1766701;80;20213;-81
2022/06/17 06:41:37;;;;;;;;;;;;;;;16.55;95.20;98502.85;1766170;80;20205;-81
2022/06/17 06:44:03;;;;;;;;;;;;;;;16.52;94.54;98503.48;1775812;79;20222;-86
2022/06/17 06:46:28;;;;;;;;;;;;;;;16.51;94.73;98510.88;1773137;79;20192;-81
2022/06/17 06:48:54;;;;;;;;;;;;;;;16.50;94.30;98506.52;1739916;80;21128;-87
2022/06/17 06:51:20;;;;;;;;;;;;;;;16.48;94.14;98516.13;1760959;79;20199;-86
2022/06/17 06:53:46;;;;;;;;;;;;;;;16.40;93.97;98519.58;1763862;79;20155;-80
2022/06/17 06:56:12;;;;;;;;;;;;;;;16.41;94.35;98520.67;1777668;79;20166;-87
2022/06/17 06:58:38;;;;;;;;;;;;;;;16.30;94.51;98523.34;1779568;80;20226;-87
2022/06/17 07:01:04;;;;;;;;;;;;;;;16.41;94.64;98523.41;1779567;79;21092;-86
2022/06/17 07:03:30;;;;;;;;;;;;;;;16.48;94.23;98524.34;1773096;80;20174;-88
2022/06/17 07:05:58;;;;;;;;;;;;;;;16.37;93.68;98516.91;1770594;80;20675;-87
2022/06/17 07:08:25;;;;;;;;;;;;;;;16.45;93.60;98516.75;1778075;80;20152;-87
2022/06/17 07:10:52;;;;;;;;;;;;;;;16.64;93.09;98510.58;1779773;80;20254;-81
2022/06/17 07:13:17;;;;;;;;;;;;;;;16.68;92.09;98519.81;1773662;80;21110;-81
2022/06/17 07:15:44;;;;;;;;;;;;;;;16.68;91.79;98517.08;1771829;80;20194;-87
2022/06/17 07:18:13;;;;;;;;;;;;;;;16.86;91.30;98521.62;1767610;79;20219;-81
2022/06/17 07:20:42;;;;;;;;;;;;;;;16.76;90.40;98519.12;1750945;80;20463;-87
2022/06/17 07:23:08;;;;;;;;;;;;;;;16.89;90.12;98518.81;1770921;80;20197;-81
2022/06/17 07:25:34;;;;;;;;;;;;;;;17.02;90.21;98522.64;1745193;80;21055;-88
2022/06/17 07:28:00;;;;;;;;;;;;;;;17.01;89.99;98519.09;1777993;79;21612;-81
2022/06/17 07:30:27;;;;;;;;;;;;;;;17.04;90.30;98520.40;1779057;80;20462;-81
2022/06/17 07:32:52;;;;;;;;;;;;;;;17.16;90.69;98514.61;1779232;80;20191;-81
2022/06/17 07:35:18;;;;;;;;;;;;;;;17.16;89.74;98520.64;1775505;80;20254;-88
2022/06/17 07:40:28;;;;;;;;;;;;;;;17.43;88.33;98512.86;1781738;80;20220;-87
2022/06/17 07:42:55;;;;;;;;;;;;;;;17.42;87.39;98516.72;1777738;80;20168;-81
2022/06/17 07:45:21;;;;;;;;;;;;;;;17.42;88.22;98523.56;1777568;80;20096;-88
2022/06/17 07:47:48;;;;;;;;;;;;;;;17.48;88.12;98514.11;1773654;80;20190;-88
2022/06/17 07:50:18;;;;;;;;;;;;;;;17.64;87.69;98515.90;1781159;80;21087;-87
2022/06/17 07:52:44;;;;;;;;;;;;;;;17.78;87.11;98519.41;1777415;79;20542;-88
2022/06/17 07:55:10;;;;;;;;;;;;;;;17.65;86.22;98511.47;1767375;79;20314;-88
2022/06/17 07:57:35;;;;;;;;;;;;;;;17.66;85.13;98517.19;1780456;79;20163;-88
2022/06/17 08:00:03;;;;;;;;;;;;;;;17.87;82.08;98522.19;1780946;80;20174;-88
2022/06/17 08:02:29;;;;;;;;;;;;;;;17.75;79.96;98521.38;1780587;79;21267;-81
2022/06/17 08:04:54;;;;;;;;;;;;;;;18.50;80.40;98516.27;1778473;80;20214;-88
2022/06/17 08:07:21;;;;;;;;;;;;;;;19.08;77.20;98529.37;1776348;80;20226;-88
2022/06/17 08:09:46;;;;;;;;;;;;;;;19.89;75.43;98532.75;1774907;80;20645;-88
2022/06/17 08:12:13;;;;;;;;;;;;;;;20.46;71.89;98524.14;1778273;79;20238;-89
2022/06/17 08:14:43;;;;;;;;;;;;;;;20.69;68.40;98515.02;1783311;79;21189;-88
2022/06/17 08:17:08;;;;;;;;;;;;;;;21.48;68.61;98513.27;1780137;79;20446;-88
2022/06/17 08:19:33;;;;;;;;;;;;;;;21.47;63.59;98517.17;1784232;79;20186;-81
2022/06/17 08:21:59;;;;;;;;;;;;;;;20.59;65.21;98527.77;1777977;79;20238;-81
2022/06/17 08:24:25;;;;;;;;;;;;;;;20.11;66.32;98539.41;1779062;80;20163;-81
2022/06/17 08:26:51;;;;;;;;;;;;;;;19.97;68.01;98546.48;1781663;79;21038;-88
2022/06/17 08:29:17;;;;;;;;;;;;;;;19.49;66.01;98547.30;1779564;80;20202;-88
2022/06/17 08:31:42;;;;;;;;;;;;;;;19.13;67.48;98544.30;1766427;79;20265;-81
2022/06/17 08:34:08;;;;;;;;;;;;;;;19.14;68.02;98540.42;1776636;80;20241;-81
2022/06/17 08:36:34;;;;;;;;;;;;;;;19.34;69.56;98541.73;1753340;80;21403;-80
2022/06/17 08:39:02;;;;;;;;;;;;;;;19.06;69.56;98546.75;1781026;80;21110;-81
2022/06/17 08:41:30;;;;;;;;;;;;;;;18.49;69.90;98542.66;1772771;80;20262;-88
2022/06/17 08:44:14;;;;;;;;;;;;;;;19.46;70.29;98543.24;1774767;80;20164;-81
2022/06/17 08:46:50;;;;;;;;;;;;;;;20.01;70.05;98542.52;1759897;80;20150;-81
2022/06/17 08:49:32;;;;;;;;;;;;;;;21.14;67.82;98533.06;1758149;80;20206;-82
2022/06/17 08:52:04;;;;;;;;;;;;;;;22.32;65.20;98539.44;1758649;80;21224;-81
2022/06/17 08:54:49;;;;;;;;;;;;;;;22.30;60.21;98543.09;1766745;80;20135;-81
2022/06/17 08:57:39;;;;;;;;;;;;;;;21.45;61.34;98546.45;1762336;80;20183;-82
2022/06/17 09:00:11;;;;;;;;;;;;;;;21.59;64.33;98554.42;1775886;80;20156;-88
2022/06/17 09:02:49;;;;;;;;;;;;;;;20.66;64.87;98552.84;1774531;79;20200;-88
2022/06/17 09:05:24;;;;;;;;;;;;;;;19.95;66.32;98564.45;1776283;80;21053;-88
2022/06/17 09:08:00;;;;;;;;;;;;;;;19.84;66.26;98563.20;1779452;79;20221;-88
2022/06/17 09:10:50;;;;;;;;;;;;;;;21.08;63.52;98554.49;1775681;80;20474;-89
2022/06/17 09:13:19;;;;;;;;;;;;;;;22.05;61.20;98563.50;1772319;80;20763;-88
2022/06/17 09:15:47;;;;;;;;;;;;;;;23.37;58.19;98561.64;1758979;80;20239;-88
2022/06/17 09:18:23;;;;;;;;;;;;;;;24.07;56.38;98570.31;1782058;78;21607;-89
2022/06/17 09:20:51;;;;;;;;;;;;;;;23.78;53.18;98571.53;1746348;81;20249;-89
2022/06/17 09:23:21;;;;;;;;;;;;;;;23.71;52.71;98581.01;1746819;81;20199;-88
2022/06/17 09:25:47;;;;;;;;;;;;;;;23.48;50.80;98595.12;1734647;81;20602;-88
2022/06/17 09:28:26;;;;;;;;;;;;;;;24.42;52.80;98600.11;1730375;81;20129;-82
2022/06/17 09:30:56;;;;;;;;;;;;;;;24.52;52.61;98596.80;1716207;82;21279;-88
2022/06/17 09:33:28;;;;;;;;;;;;;;;25.34;51.92;98593.78;1712071;82;20181;-88
2022/06/17 09:36:00;;;;;;;;;;;;;;;26.09;50.73;98585.00;1753224;80;20203;-89
2022/06/17 09:38:44;;;;;;;;;;;;;;;24.45;51.12;98597.45;1753887;80;20219;-82
2022/06/17 09:41:35;;;;;;;;;;;;;;;23.45;54.79;98598.02;1783053;80;20179;-88
2022/06/17 09:44:16;;;;;;;;;;;;;;;22.48;56.84;98622.39;1779048;80;21313;-81
2022/06/17 09:46:44;;;;;;;;;;;;;;;;;;1791386;80;20199;-81
2022/06/17 09:49:33;;;;;;;;;;;;;;;22.63;55.78;98615.37;1805472;79;20188;-87
2022/06/17 09:52:03;;;;;;;;;;;;;;;22.94;54.73;98616.20;1794679;79;20510;-87
2022/06/17 09:54:50;;;;;;;;;;;;;;;23.69;52.55;98610.99;1793136;79;20152;-82
2022/06/17 09:57:32;;;;;;;;;;;;;;;24.85;49.50;98621.36;1795727;78;21716;-83
2022/06/17 10:00:02;;;;;;;;;;;;;;;24.06;51.74;98617.15;1780250;80;20178;-88
2022/06/17 10:02:31;;;;;;;;;;;;;;;23.15;53.24;98625.72;1773982;79;20206;-88
2022/06/17 10:04:56;;;;;;;;;;;;;;;24.45;51.27;98622.95;1798243;79;20139;-82
2022/06/17 10:07:50;;;;;;;;;;;;;;;24.77;49.77;98620.95;1789114;78;20691;-89
2022/06/17 10:10:37;;;;;;;;;;;;;;;26.42;49.01;98621.35;1790832;79;21057;-82
2022/06/17 10:13:27;;;;;;;;;;;;;;;24.72;49.25;98622.64;1789604;78;20490;-89
2022/06/17 10:19:34;;;;;;;;;;;;;;;25.34;48.26;98622.31;1773996;79;20738;-89
2022/06/17 10:22:04;;;;;;;;;;;;;;;25.10;46.84;98626.13;1784775;78;20533;-89
2022/06/17 10:24:42;;;;;;;;;;;;;;;25.63;47.34;98616.78;1786155;80;21779;-83
2022/06/17 10:27:29;;;;;;;;;;;;;;;24.55;49.76;98618.27;1776056;80;20196;-89
2022/06/17 10:30:00;;;;;;;;;;;;;;;25.41;47.60;98613.35;1785623;79;20199;-89
2022/06/17 10:32:26;;;;;;;;;;;;;;;24.76;49.60;98619.36;1789777;80;20745;-89
2022/06/17 10:34:58;;;;;;;;;;;;;;;24.83;50.61;98621.50;1786018;80;20233;-87
2022/06/17 10:37:26;;;;;;;;;;;;;;;25.05;49.17;98628.40;1781185;78;21792;-89
2022/06/17 10:39:53;;;;;;;;;;;;;;;23.24;52.66;98627.20;1787789;80;20172;-82
2022/06/17 10:42:19;;;;;;;;;;;;;;;22.56;55.21;98625.62;1767997;80;20212;-88
2022/06/17 10:44:48;;;;;;;;;;;;;;;22.71;55.34;98624.12;1768290;80;20179;-88
2022/06/17 10:47:36;;;;;;;;;;;;;;;23.77;52.64;98623.88;1788279;78;20194;-88
2022/06/17 10:50:05;;;;;;;;;;;;;;;25.94;48.54;98620.02;1771192;78;21304;-82
2022/06/17 10:52:38;;;;;;;;;;;;;;;25.02;49.11;98621.55;1752267;80;20186;-82
2022/06/17 10:55:04;;;;;;;;;;;;;;;26.83;47.26;98613.27;1753561;80;20212;-82
2022/06/17 10:57:33;;;;;;;;;;;;;;;26.37;43.42;98616.06;1760836;78;20565;-82
2022/06/17 10:59:58;;;;;;;;;;;;;;;26.66;44.31;98620.73;1780755;78;20211;-82
2022/06/17 11:02:29;;;;;;;;;;;;;;;26.64;43.84;98618.33;1782485;79;21836;-82
2022/06/17 11:04:59;;;;;;;;;;;;;;;26.96;43.60;98616.66;1781391;79;20151;-82
2022/06/17 11:07:34;;;;;;;;;;;;;;;26.99;41.64;98618.68;1789710;78;20167;-88
2022/06/17 11:10:15;;;;;;;;;;;;;;;27.18;42.36;98629.75;1790453;80;21168;-88
2022/06/17 11:12:44;;;;;;;;;;;;;;;27.15;42.59;98621.33;1780123;78;20156;-88
2022/06/17 11:15:31;;;;;;;;;;;;;;;28.39;42.02;98620.72;1781985;80;20982;-82
2022/06/17 11:18:03;;;;;;;;;;;;;;;26.48;44.32;98625.99;1782700;78;20562;-82
2022/06/17 11:20:30;;;;;;;;;;;;;;;24.65;47.65;98621.07;1791371;79;20177;-88
2022/06/17 11:23:07;;;;;;;;;;;;;;;25.68;46.10;98615.11;1790228;79;20229;-88
2022/06/17 11:25:35;;;;;;;;;;;;;;;27.79;44.41;98600.77;1789745;80;20194;-88
2022/06/17 11:28:23;;;;;;;;;;;;;;;28.09;39.92;98609.62;1770727;79;21720;-83
2022/06/17 11:30:57;;;;;;;;;;;;;;;27.50;41.32;98608.50;1779285;79;20190;-89
2022/06/17 11:33:35;;;;;;;;;;;;;;;27.79;38.85;98608.31;1781369;79;20226;-83
2022/06/17 11:36:07;;;;;;;;;;;;;;;27.40;39.30;98616.13;1771914;79;20487;-88
2022/06/17 11:38:33;;;;;;;;;;;;;;;29.87;37.40;98606.77;1778111;80;20178;-83
2022/06/17 11:41:00;;;;;;;;;;;;;;;28.37;38.24;98607.17;1780967;79;22092;-89
2022/06/17 11:43:40;;;;;;;;;;;;;;;29.05;36.63;98606.33;1753518;79;20130;-88
2022/06/17 11:46:16;;;;;;;;;;;;;;;28.66;36.93;98606.82;1747619;80;20249;-88
2022/06/17 11:48:45;;;;;;;;;;;;;;;28.45;35.22;98607.22;1759094;79;20409;-88
2022/06/17 11:51:13;;;;;;;;;;;;;;;29.73;32.59;98606.11;1775415;79;20841;-88
2022/06/17 11:53:55;;;;;;;;;;;;;;;30.63;33.66;98600.73;1777477;80;21122;-87
2022/06/17 11:56:35;;;;;;;;;;;;;;;29.05;33.28;98602.14;1764779;80;20166;-89
2022/06/17 11:59:08;;;;;;;;;;;;;;;29.89;34.06;98596.00;1769494;79;20191;-89
2022/06/17 12:01:33;;;;;;;;;;;;;;;27.46;36.91;98597.93;1770455;80;20203;-87
2022/06/17 12:03:59;;;;;;;;;;;;;;;27.29;39.95;98595.71;1764805;79;20181;-88
2022/06/17 12:06:27;;;;;;;;;;;;;;;25.39;41.44;98605.41;1772777;79;21721;-89
2022/06/17 12:09:05;;;;;;;;;;;;;;;25.48;40.76;98605.98;1766420;79;20292;-83
2022/06/17 12:11:47;;;;;;;;;;;;;;;24.22;43.49;98607.48;1767959;78;20165;-83
2022/06/17 12:14:29;;;;;;;;;;;;;;;23.93;44.77;98604.55;1765851;79;20261;-83
2022/06/17 12:16:54;;;;;;;;;;;;;;;23.51;44.78;98611.84;1777146;79;20168;-83
2022/06/17 12:19:20;;;;;;;;;;;;;;;25.85;40.35;98604.98;1759848;80;21812;-83
2022/06/17 12:21:57;;;;;;;;;;;;;;;25.44;39.13;98602.32;1779963;79;20514;-83
2022/06/17 12:24:35;;;;;;;;;;;;;;;24.35;41.29;98610.42;1768479;79;20148;-87
2022/06/17 12:27:11;;;;;;;;;;;;;;;23.66;41.90;98597.84;1776550;79;20824;-88
2022/06/17 12:29:52;;;;;;;;;;;;;;;22.82;44.08;98600.42;1769213;80;20199;-88
2022/06/17 12:32:39;;;;;;;;;;;;;;;23.84;43.54;98595.02;1732151;81;21703;-87
2022/06/17 12:35:08;;;;;;;;;;;;;;;23.55;43.57;98604.44;1724790;82;20328;-89
2022/06/17 12:37:43;;;;;;;;;;;;;;;22.98;45.25;98603.30;1740454;82;20407;-87
2022/06/17 12:40:31;;;;;;;;;;;;;;;22.44;47.04;98614.55;1760165;80;20278;-88
2022/06/17 12:43:18;;;;;;;;;;;;;;;22.79;46.47;98620.44;1779539;79;20286;-87
2022/06/17 12:45:57;;;;;;;;;;;;;;;22.64;47.30;98618.36;1779571;80;21296;-88
2022/06/17 12:48:41;;;;;;;;;;;;;;;22.64;47.55;98620.54;1752343;80;20191;-89
2022/06/17 12:54:15;;;;;;;;;;;;;;;22.57;47.94;98619.53;1769508;80;20179;-86
2022/06/17 12:56:51;;;;;;;;;;;;;;;24.11;45.15;98615.52;1778558;79;20259;-87
2022/06/17 12:59:32;;;;;;;;;;;;;;;25.48;42.83;98617.67;1776282;80;21010;-87
2022/06/17 13:02:13;;;;;;;;;;;;;;;26.61;39.30;98610.75;1756558;79;20179;-87
2022/06/17 13:04:51;;;;;;;;;;;;;;;27.09;38.01;98604.19;1749096;80;20140;-87
2022/06/17 13:07:30;;;;;;;;;;;;;;;28.09;34.99;98598.48;1764157;80;20215;-87
2022/06/17 13:10:40;;;;;;;;;;;;;;;29.99;35.33;98593.82;1740181;80;20436;-89
2022/06/17 13:13:43;;;;;;;;;;;;;;;30.66;31.58;98590.17;1777824;79;21139;-88